createdAt,value
2019-01-11T00:00:41.483Z,7.35
2019-01-11T00:03:09.949Z,6.22
2019-01-11T00:05:38.483Z,8.10
2019-01-11T00:08:07.290Z,5.15
2019-01-11T00:10:35.765Z,6.47
2019-01-11T00:13:04.305Z,5.72
2019-01-11T00:15:33.235Z,5.03
2019-01-11T00:18:01.702Z,10.90
2019-01-11T00:20:30.227Z,5.83
2019-01-11T00:22:58.677Z,7.45
2019-01-11T00:25:27.130Z,6.25
2019-01-11T00:27:55.570Z,7.25
2019-01-11T00:30:24.027Z,7.15
2019-01-11T00:32:52.489Z,6.50
2019-01-11T00:35:20.965Z,10.82
2019-01-11T00:37:49.393Z,7.58
2019-01-11T00:40:18.067Z,7.55
2019-01-11T00:42:46.529Z,7.65
2019-01-11T00:45:15.318Z,7.40
2019-01-11T00:47:43.859Z,6.65
2019-01-11T00:50:12.537Z,9.38
2019-01-11T00:52:41.001Z,7.42
2019-01-11T00:55:09.977Z,6.62
2019-01-11T00:57:38.431Z,10.50
2019-01-11T01:00:16.087Z,9.50
2019-01-11T01:02:44.529Z,7.72
2019-01-11T01:05:13.192Z,9.28
2019-01-11T01:07:41.664Z,9.50
2019-01-11T01:10:10.349Z,10.32
2019-01-11T01:12:38.827Z,8.53
2019-01-11T01:15:10.529Z,10.82
2019-01-11T01:17:38.973Z,11.25
2019-01-11T01:20:15.034Z,11.75
2019-01-11T01:22:43.655Z,11.03
2019-01-11T01:25:12.538Z,10.08
2019-01-11T01:27:41.265Z,9.45
2019-01-11T01:30:15.859Z,9.48
2019-01-11T01:32:44.301Z,8.75
2019-01-11T01:35:12.929Z,14.30
2019-01-11T01:37:41.369Z,11.40
2019-01-11T01:40:15.315Z,13.18
2019-01-11T01:42:43.754Z,9.18
2019-01-11T01:45:18.062Z,11.05
2019-01-11T01:47:46.493Z,10.80
2019-01-11T01:50:15.425Z,12.33
2019-01-11T01:52:43.921Z,14.80
2019-01-11T01:55:14.389Z,10.05
2019-01-11T01:57:42.982Z,15.53
2019-01-11T02:00:19.285Z,10.25
2019-01-11T02:02:48.881Z,12.33
2019-01-11T02:05:17.671Z,11.68
2019-01-11T02:07:46.312Z,12.68
2019-01-11T02:10:15.336Z,12.88
2019-01-11T02:12:43.787Z,10.53
2019-01-11T02:15:13.064Z,9.68
2019-01-11T02:17:41.680Z,14.43
2019-01-11T02:20:15.350Z,11.18
2019-01-11T02:22:44.158Z,12.53
2019-01-11T02:25:13.236Z,16.62
2019-01-11T02:27:41.861Z,12.73
2019-01-11T02:30:16.025Z,14.90
2019-01-11T02:32:52.112Z,14.85
2019-01-11T02:35:14.649Z,13.32
2019-01-11T02:37:43.116Z,17.40
2019-01-11T02:40:13.142Z,15.55
2019-01-11T02:42:41.575Z,17.10
2019-01-11T02:45:18.850Z,13.75
2019-01-11T02:47:47.368Z,16.42
2019-01-11T02:50:16.410Z,16.17
2019-01-11T02:52:45.286Z,18.73
2019-01-11T02:55:13.832Z,19.98
2019-01-11T02:57:42.258Z,19.07
2019-01-11T03:00:16.442Z,20.45
2019-01-11T03:02:44.956Z,18.75
2019-01-11T03:05:14.471Z,30.57
2019-01-11T03:07:43.088Z,22.20
2019-01-11T03:10:14.833Z,18.42
2019-01-11T03:12:43.297Z,20.45
2019-01-11T03:15:12.526Z,22.10
2019-01-11T03:17:40.964Z,21.27
2019-01-11T03:20:12.049Z,22.80
2019-01-11T03:22:40.492Z,20.55
2019-01-11T03:25:11.170Z,20.32
2019-01-11T03:27:39.629Z,22.70
2019-01-11T03:30:11.613Z,24.43
2019-01-11T03:32:40.066Z,20.77
2019-01-11T03:35:10.226Z,26.82
2019-01-11T03:37:38.693Z,23.67
2019-01-11T03:40:10.330Z,25.57
2019-01-11T03:42:38.797Z,22.30
2019-01-11T03:45:10.326Z,28.60
2019-01-11T03:47:38.794Z,25.88
2019-01-11T03:50:10.065Z,25.75
2019-01-11T03:52:38.524Z,23.67
2019-01-11T03:55:09.813Z,26.42
2019-01-11T03:57:38.378Z,24.02
2019-01-11T04:00:10.216Z,25.08
2019-01-11T04:02:38.681Z,26.40
2019-01-11T04:05:08.965Z,26.57
2019-01-11T04:07:37.497Z,23.18
2019-01-11T04:10:08.987Z,26.60
2019-01-11T04:12:37.452Z,24.95
2019-01-11T04:15:08.844Z,26.82
2019-01-11T04:17:37.333Z,24.72
2019-01-11T04:20:08.831Z,29.00
2019-01-11T04:22:37.875Z,25.12
2019-01-11T04:25:07.253Z,25.65
2019-01-11T04:27:35.736Z,28.87
2019-01-11T04:30:06.973Z,34.45
2019-01-11T04:32:35.429Z,27.85
2019-01-11T04:35:04.181Z,24.50
2019-01-11T04:37:32.601Z,23.47
2019-01-11T04:40:01.070Z,24.10
2019-01-11T04:42:29.509Z,26.05
2019-01-11T04:44:57.972Z,26.23
2019-01-11T04:47:26.429Z,29.65
2019-01-11T04:49:54.889Z,26.33
2019-01-11T04:52:23.349Z,25.37
2019-01-11T04:54:51.816Z,30.32
2019-01-11T04:57:20.262Z,26.12
2019-01-11T04:59:48.728Z,26.85
2019-01-11T05:02:17.189Z,25.90
2019-01-11T05:04:45.645Z,25.88
2019-01-11T05:07:14.163Z,27.40
2019-01-11T05:09:42.614Z,32.48
2019-01-11T05:12:11.055Z,25.80
2019-01-11T05:14:39.523Z,28.47
2019-01-11T05:17:07.974Z,25.95
2019-01-11T05:19:36.436Z,38.92
2019-01-11T05:22:05.092Z,31.42
2019-01-11T05:24:33.533Z,25.62
2019-01-11T05:27:01.992Z,26.68
2019-01-11T05:29:30.481Z,28.35
2019-01-11T05:31:59.103Z,28.80
2019-01-11T05:34:27.556Z,30.37
2019-01-11T05:36:56.016Z,28.35
2019-01-11T05:39:24.460Z,27.65
2019-01-11T05:41:52.918Z,29.32
2019-01-11T05:44:21.367Z,29.70
2019-01-11T05:46:49.831Z,30.40
2019-01-11T05:49:18.286Z,29.67
2019-01-11T05:51:46.771Z,28.87
2019-01-11T05:54:15.213Z,28.10
2019-01-11T05:56:43.685Z,29.95
2019-01-11T05:59:12.124Z,27.50
2019-01-11T06:01:40.608Z,29.35
2019-01-11T06:04:10.727Z,33.90
2019-01-11T06:06:40.815Z,28.07
2019-01-11T06:09:09.286Z,28.75
2019-01-11T06:11:37.760Z,29.18
2019-01-11T06:14:06.208Z,26.68
2019-01-11T06:16:34.700Z,28.65
2019-01-11T06:19:03.128Z,29.18
2019-01-11T06:21:31.584Z,28.12
2019-01-11T06:24:00.051Z,28.32
2019-01-11T06:26:28.510Z,30.35
2019-01-11T06:28:56.963Z,27.10
2019-01-11T06:31:25.403Z,28.15
2019-01-11T06:33:53.870Z,26.52
2019-01-11T06:36:22.347Z,26.87
2019-01-11T06:38:50.874Z,31.42
2019-01-11T06:41:19.328Z,26.40
2019-01-11T06:43:49.426Z,26.97
2019-01-11T06:46:17.943Z,27.17
2019-01-11T06:48:46.404Z,27.82
2019-01-11T06:51:14.844Z,26.40
2019-01-11T06:53:43.316Z,38.00
2019-01-11T06:56:11.755Z,28.52
2019-01-11T06:58:40.228Z,27.05
2019-01-11T07:01:08.675Z,26.40
2019-01-11T07:03:37.156Z,31.40
2019-01-11T07:06:05.615Z,26.15
2019-01-11T07:08:34.105Z,26.37
2019-01-11T07:11:02.592Z,30.27
2019-01-11T07:13:31.060Z,29.25
2019-01-11T07:15:59.515Z,28.47
2019-01-11T07:18:27.965Z,28.83
2019-01-11T07:20:56.434Z,25.43
2019-01-11T07:23:24.920Z,25.15
2019-01-11T07:25:53.395Z,24.00
2019-01-11T07:28:23.375Z,24.77
2019-01-11T07:30:53.478Z,27.07
2019-01-11T07:33:23.307Z,24.10
2019-01-11T07:35:52.838Z,22.62
2019-01-11T07:38:21.276Z,23.07
2019-01-11T07:40:49.737Z,19.70
2019-01-11T07:43:18.175Z,20.27
2019-01-11T07:45:46.634Z,23.22
2019-01-11T07:48:15.079Z,27.13
2019-01-11T07:50:49.184Z,21.23
2019-01-11T07:53:13.750Z,19.45
2019-01-11T07:55:42.209Z,21.30
2019-01-11T07:58:10.660Z,21.30
2019-01-11T08:00:39.123Z,24.07
2019-01-11T08:03:07.573Z,19.30
2019-01-11T08:05:36.041Z,22.02
2019-01-11T08:08:04.989Z,17.23
2019-01-11T08:10:33.451Z,16.82
2019-01-11T08:13:01.909Z,19.70
2019-01-11T08:15:30.357Z,16.87
2019-01-11T08:17:58.845Z,16.80
2019-01-11T08:20:27.285Z,21.17
2019-01-11T08:22:55.753Z,16.27
2019-01-11T08:25:24.189Z,18.42
2019-01-11T08:27:52.715Z,16.25
2019-01-11T08:30:21.164Z,17.57
2019-01-11T08:32:49.647Z,16.25
2019-01-11T08:35:18.088Z,18.42
2019-01-11T08:37:47.064Z,13.45
2019-01-11T08:40:15.476Z,13.65
2019-01-11T08:42:44.136Z,17.77
2019-01-11T08:45:13.941Z,13.60
2019-01-11T08:47:42.498Z,13.18
2019-01-11T08:50:17.069Z,14.05
2019-01-11T08:52:45.693Z,15.30
2019-01-11T08:55:14.318Z,16.00
2019-01-11T08:57:42.929Z,14.43
2019-01-11T09:00:15.481Z,13.98
2019-01-11T09:02:43.953Z,12.50
2019-01-11T09:05:12.456Z,16.05
2019-01-11T09:07:40.936Z,12.45
2019-01-11T09:10:12.461Z,13.78
2019-01-11T09:12:40.911Z,14.15
2019-01-11T09:15:09.812Z,14.95
2019-01-11T09:17:40.006Z,13.03
2019-01-11T09:20:08.738Z,13.20
2019-01-11T09:22:37.177Z,13.62
2019-01-11T09:25:06.210Z,16.02
2019-01-11T09:27:34.658Z,13.22
2019-01-11T09:30:03.430Z,14.70
2019-01-11T09:32:31.886Z,14.80
2019-01-11T09:35:00.383Z,14.87
2019-01-11T09:37:28.818Z,13.58
2019-01-11T09:39:57.342Z,16.65
2019-01-11T09:42:25.740Z,14.23
2019-01-11T09:44:55.093Z,14.65
2019-01-11T09:47:23.547Z,18.02
2019-01-11T09:49:52.195Z,18.67
2019-01-11T09:52:20.648Z,15.90
2019-01-11T09:54:49.114Z,14.73
2019-01-11T09:57:17.584Z,13.30
2019-01-11T09:59:46.056Z,16.00
2019-01-11T10:02:16.178Z,14.15
2019-01-11T10:04:44.720Z,13.60
2019-01-11T10:07:17.526Z,17.50
2019-01-11T10:09:45.982Z,13.40
2019-01-11T10:12:14.434Z,13.35
2019-01-11T10:14:42.927Z,16.17
2019-01-11T10:17:11.395Z,17.70
2019-01-11T10:19:39.834Z,18.05
2019-01-11T10:22:08.326Z,19.87
2019-01-11T10:24:36.785Z,18.70
2019-01-11T10:27:05.234Z,18.62
2019-01-11T10:29:33.694Z,17.60
2019-01-11T10:32:02.179Z,22.30
2019-01-11T10:34:30.635Z,23.32
2019-01-11T10:36:59.116Z,21.12
2019-01-11T10:39:27.557Z,19.62
2019-01-11T10:41:56.107Z,23.60
2019-01-11T10:44:24.585Z,21.77
2019-01-11T10:46:53.048Z,20.82
2019-01-11T10:49:21.641Z,25.62
2019-01-11T10:51:50.106Z,25.12
2019-01-11T10:54:25.995Z,26.23
2019-01-11T10:56:54.477Z,23.38
2019-01-11T10:59:22.907Z,24.12
2019-01-11T11:01:51.375Z,22.85
2019-01-11T11:04:19.835Z,20.55
2019-01-11T11:06:48.291Z,21.60
2019-01-11T11:09:16.748Z,22.80
2019-01-11T11:11:45.341Z,28.98
2019-01-11T11:14:13.863Z,21.25
2019-01-11T11:16:42.356Z,17.80
2019-01-11T11:19:10.794Z,15.75
2019-01-11T11:21:39.267Z,18.90
2019-01-11T11:24:07.699Z,13.83
2019-01-11T11:26:36.194Z,16.20
2019-01-11T11:29:04.874Z,20.62
2019-01-11T11:31:33.356Z,18.77
2019-01-11T11:34:01.809Z,15.23
2019-01-11T11:36:30.259Z,14.68
2019-01-11T11:38:58.721Z,14.55
2019-01-11T11:41:27.242Z,17.80
2019-01-11T11:43:55.744Z,15.78
2019-01-11T11:46:24.167Z,14.58
2019-01-11T11:48:52.656Z,15.72
2019-01-11T11:51:21.115Z,15.23
2019-01-11T11:53:49.579Z,16.52
2019-01-11T11:56:18.026Z,14.60
2019-01-11T11:58:46.517Z,18.20
2019-01-11T12:01:14.973Z,15.25
2019-01-11T12:03:43.461Z,17.30
2019-01-11T12:06:11.967Z,17.48
2019-01-11T12:08:40.391Z,15.08
2019-01-11T12:11:08.845Z,17.75
2019-01-11T12:13:37.316Z,15.68
2019-01-11T12:16:05.756Z,16.97
2019-01-11T12:18:34.235Z,16.75
2019-01-11T12:21:02.776Z,14.70
2019-01-11T12:23:31.275Z,15.45
2019-01-11T12:25:59.992Z,17.32
2019-01-11T12:28:28.473Z,16.85
2019-01-11T12:30:56.932Z,18.45
2019-01-11T12:33:25.357Z,17.85
2019-01-11T12:35:53.831Z,12.68
2019-01-11T12:38:22.273Z,13.90
2019-01-11T12:40:50.734Z,12.75
2019-01-11T12:43:19.176Z,12.50
2019-01-11T12:45:47.639Z,16.37
2019-01-11T12:48:16.110Z,12.75
2019-01-11T12:50:44.648Z,12.03
2019-01-11T12:53:13.017Z,13.80
2019-01-11T12:55:41.481Z,15.83
2019-01-11T12:58:09.928Z,14.95
2019-01-11T13:00:38.383Z,14.45
2019-01-11T13:03:06.882Z,15.48
2019-01-11T13:05:35.350Z,14.87
2019-01-11T13:08:03.801Z,16.25
2019-01-11T13:10:32.283Z,14.23
2019-01-11T13:13:00.738Z,14.18
2019-01-11T13:15:29.190Z,17.50
2019-01-11T13:17:57.672Z,15.13
2019-01-11T13:20:26.120Z,17.37
2019-01-11T13:22:54.648Z,15.68
2019-01-11T13:25:23.131Z,16.57
2019-01-11T13:27:51.612Z,15.30
2019-01-11T13:30:20.610Z,19.00
2019-01-11T13:32:49.241Z,16.07
2019-01-11T13:35:17.705Z,14.50
2019-01-11T13:37:46.176Z,13.80
2019-01-11T13:40:17.503Z,15.70
2019-01-11T13:42:45.981Z,13.25
2019-01-11T13:45:15.066Z,13.78
2019-01-11T13:47:43.643Z,12.40
2019-01-11T13:50:15.158Z,11.12
2019-01-11T13:52:43.606Z,13.32
2019-01-11T13:55:12.066Z,12.50
2019-01-11T13:57:40.569Z,13.72
2019-01-11T14:00:14.758Z,10.75
2019-01-11T14:02:43.228Z,11.08
2019-01-11T14:05:11.671Z,11.53
2019-01-11T14:07:40.128Z,14.70
2019-01-11T14:10:08.587Z,14.85
2019-01-11T14:12:37.057Z,12.98
2019-01-11T14:15:08.147Z,12.43
2019-01-11T14:17:37.433Z,12.23
2019-01-11T14:20:08.845Z,12.73
2019-01-11T14:22:37.289Z,14.38
2019-01-11T14:25:08.283Z,12.35
2019-01-11T14:27:36.745Z,13.48
2019-01-11T14:30:14.134Z,13.40
2019-01-11T14:32:42.707Z,14.50
2019-01-11T14:35:11.306Z,12.28
2019-01-11T14:37:39.774Z,12.93
2019-01-11T14:40:13.907Z,14.65
2019-01-11T14:42:42.366Z,11.90
2019-01-11T14:45:13.568Z,10.90
2019-01-11T14:47:42.026Z,12.30
2019-01-11T14:50:15.526Z,12.50
2019-01-11T14:52:43.992Z,13.00
2019-01-11T14:55:12.459Z,12.33
2019-01-11T14:57:40.921Z,11.25
2019-01-11T15:00:18.141Z,15.60
2019-01-11T15:02:46.665Z,13.18
2019-01-11T15:05:16.740Z,14.03
2019-01-11T15:07:45.329Z,14.07
2019-01-11T15:10:15.668Z,15.08
2019-01-11T15:12:45.491Z,16.23
2019-01-11T15:15:13.965Z,18.15
2019-01-11T15:17:42.438Z,14.78
2019-01-11T15:20:15.858Z,13.53
2019-01-11T15:22:44.853Z,18.20
2019-01-11T15:25:13.464Z,14.35
2019-01-11T15:27:41.941Z,15.10
2019-01-11T15:30:15.854Z,14.90
2019-01-11T15:32:44.310Z,14.58
2019-01-11T15:35:13.031Z,24.05
2019-01-11T15:37:41.502Z,17.92
2019-01-11T15:40:15.563Z,17.62
2019-01-11T15:42:44.025Z,17.70
2019-01-11T15:45:12.509Z,17.98
2019-01-11T15:47:41.007Z,16.45
2019-01-11T15:50:18.344Z,18.65
2019-01-11T15:52:46.825Z,16.42
2019-01-11T15:55:15.306Z,14.73
2019-01-11T15:57:43.781Z,18.10
2019-01-11T16:00:15.340Z,16.52
2019-01-11T16:02:43.873Z,18.37
2019-01-11T16:05:12.358Z,14.78
2019-01-11T16:07:40.826Z,15.10
2019-01-11T16:10:15.214Z,18.10
2019-01-11T16:12:43.666Z,14.80
2019-01-11T16:15:24.355Z,17.82
2019-01-11T16:17:55.856Z,14.47
2019-01-11T16:20:24.323Z,14.50
2019-01-11T16:22:52.832Z,16.17
2019-01-11T16:25:21.298Z,14.98
2019-01-11T16:27:49.866Z,14.20
2019-01-11T16:30:18.545Z,13.08
2019-01-11T16:32:47.023Z,17.00
2019-01-11T16:35:15.489Z,19.57
2019-01-11T16:37:43.975Z,19.40
2019-01-11T16:40:13.809Z,17.90
2019-01-11T16:42:42.292Z,14.47
2019-01-11T16:45:15.120Z,15.45
2019-01-11T16:47:43.650Z,16.33
2019-01-11T16:50:15.254Z,17.20
2019-01-11T16:52:46.526Z,18.57
2019-01-11T16:55:13.992Z,17.98
2019-01-11T16:57:42.434Z,18.33
2019-01-11T17:00:13.969Z,18.62
2019-01-11T17:02:42.450Z,20.68
2019-01-11T17:05:11.378Z,20.17
2019-01-11T17:07:39.898Z,23.93
2019-01-11T17:10:11.121Z,23.07
2019-01-11T17:12:41.898Z,20.67
2019-01-11T17:15:12.987Z,20.63
2019-01-11T17:17:41.438Z,20.37
2019-01-11T17:20:12.923Z,21.03
2019-01-11T17:22:41.373Z,22.93
2019-01-11T17:25:09.853Z,22.10
2019-01-11T17:27:38.322Z,21.00
2019-01-11T17:30:12.585Z,25.23
2019-01-11T17:32:41.122Z,22.73
2019-01-11T17:35:09.638Z,23.63
2019-01-11T17:37:38.094Z,22.17
2019-01-11T17:40:09.245Z,20.80
2019-01-11T17:42:37.714Z,21.90
2019-01-11T17:45:08.918Z,22.90
2019-01-11T17:47:37.383Z,17.13
2019-01-11T17:50:09.149Z,19.53
2019-01-11T17:52:37.597Z,20.97
2019-01-11T17:55:06.939Z,17.98
2019-01-11T17:57:35.386Z,16.20
2019-01-11T18:00:06.968Z,16.77
2019-01-11T18:02:35.418Z,18.20
2019-01-11T18:05:05.174Z,17.67
2019-01-11T18:07:33.649Z,19.17
2019-01-11T18:10:02.130Z,22.90
2019-01-11T18:12:30.729Z,19.43
2019-01-11T18:14:59.180Z,68.30
2019-01-11T18:17:27.683Z,19.83
2019-01-11T18:19:56.118Z,19.87
2019-01-11T18:22:24.621Z,16.70
2019-01-11T18:24:53.081Z,14.87
2019-01-11T18:27:21.553Z,15.97
2019-01-11T18:29:49.996Z,16.67
2019-01-11T18:32:18.524Z,16.43
2019-01-11T18:34:46.979Z,14.53
2019-01-11T18:37:15.439Z,17.47
2019-01-11T18:39:43.905Z,18.73
2019-01-11T18:42:12.389Z,21.83
2019-01-11T18:44:40.847Z,18.33
2019-01-11T18:47:09.326Z,15.87
2019-01-11T18:49:37.774Z,18.10
2019-01-11T18:52:06.266Z,16.43
2019-01-11T18:54:34.704Z,16.63
2019-01-11T18:57:03.177Z,15.37
2019-01-11T18:59:32.322Z,17.50
2019-01-11T19:02:00.860Z,19.20
2019-01-11T19:04:29.374Z,13.73
2019-01-11T19:06:57.822Z,15.67
2019-01-11T19:09:26.263Z,12.70
2019-01-11T19:11:54.827Z,13.03
2019-01-11T19:14:23.287Z,15.13
2019-01-11T19:16:51.759Z,15.03
2019-01-11T19:19:20.238Z,21.90
2019-01-11T19:21:51.645Z,13.33
2019-01-11T19:24:20.238Z,21.73
2019-01-11T19:26:48.683Z,18.17
2019-01-11T19:29:17.160Z,15.07
2019-01-11T19:31:45.614Z,19.33
2019-01-11T19:34:14.097Z,15.10
2019-01-11T19:36:42.592Z,12.57
2019-01-11T19:39:11.057Z,16.37
2019-01-11T19:41:39.558Z,13.93
2019-01-11T19:44:08.071Z,17.97
2019-01-11T19:46:36.540Z,24.40
2019-01-11T19:49:05.376Z,19.67
2019-01-11T19:51:33.842Z,11.37
2019-01-11T19:54:02.319Z,17.00
2019-01-11T19:56:30.790Z,26.20
2019-01-11T19:59:00.484Z,18.50
2019-01-11T20:01:29.025Z,12.87
2019-01-11T20:03:57.497Z,18.20
2019-01-11T20:06:27.257Z,16.93
2019-01-11T20:08:55.921Z,15.57
2019-01-11T20:11:24.448Z,16.90
2019-01-11T20:13:52.959Z,16.20
2019-01-11T20:16:21.458Z,14.47
2019-01-11T20:18:49.961Z,18.77
2019-01-11T20:21:18.429Z,12.43
2019-01-11T20:23:48.464Z,14.50
2019-01-11T20:26:16.932Z,23.27
2019-01-11T20:28:45.407Z,16.50
2019-01-11T20:31:15.022Z,17.77
2019-01-11T20:33:43.543Z,26.03
2019-01-11T20:36:12.237Z,29.43
2019-01-11T20:38:41.065Z,15.13
2019-01-11T20:41:09.546Z,21.30
2019-01-11T20:43:38.020Z,16.03
2019-01-11T20:46:06.508Z,26.47
2019-01-11T20:48:34.962Z,27.20
2019-01-11T20:51:03.442Z,18.73
2019-01-11T20:53:33.613Z,33.43
2019-01-11T20:56:02.102Z,20.60
2019-01-11T20:58:30.585Z,22.40
2019-01-11T21:00:59.495Z,27.33
2019-01-11T21:03:27.957Z,25.50
2019-01-11T21:05:56.429Z,24.07
2019-01-11T21:08:24.904Z,30.53
2019-01-11T21:10:53.365Z,24.87
2019-01-11T21:13:21.845Z,31.57
2019-01-11T21:15:50.416Z,20.33
2019-01-11T21:18:18.917Z,23.20
2019-01-11T21:20:47.402Z,24.83
2019-01-11T21:23:15.877Z,25.80
2019-01-11T21:25:44.379Z,27.10
2019-01-11T21:28:12.837Z,22.27
2019-01-11T21:30:41.292Z,33.47
2019-01-11T21:33:09.831Z,27.87
2019-01-11T21:35:38.321Z,35.17
2019-01-11T21:38:06.809Z,29.17
2019-01-11T21:40:35.293Z,32.60
2019-01-11T21:43:03.783Z,26.33
2019-01-11T21:45:32.249Z,28.50
2019-01-11T21:48:00.724Z,32.47
2019-01-11T21:50:29.318Z,22.30
2019-01-11T21:52:57.864Z,39.17
2019-01-11T21:55:26.657Z,26.03
2019-01-11T21:57:55.154Z,35.50
2019-01-11T22:00:26.499Z,41.43
2019-01-11T22:02:54.979Z,30.20
2019-01-11T22:05:23.456Z,29.73
2019-01-11T22:07:52.017Z,31.73
2019-01-11T22:10:20.477Z,46.20
2019-01-11T22:12:48.944Z,30.27
2019-01-11T22:15:19.085Z,28.13
2019-01-11T22:17:47.560Z,27.00
2019-01-11T22:20:17.573Z,31.77
2019-01-11T22:22:46.141Z,32.30
2019-01-11T22:25:16.604Z,33.03
2019-01-11T22:27:45.333Z,28.93
2019-01-11T22:30:19.786Z,34.50
2019-01-11T22:32:48.242Z,27.13
2019-01-11T22:35:18.741Z,31.87
2019-01-11T22:37:47.390Z,23.13
2019-01-11T22:40:18.255Z,31.73
2019-01-11T22:42:47.561Z,40.83
2019-01-11T22:45:16.098Z,31.40
2019-01-11T22:47:44.573Z,39.37
2019-01-11T22:50:15.162Z,42.17
2019-01-11T22:52:43.625Z,44.03
2019-01-11T22:55:14.711Z,38.00
2019-01-11T22:57:43.263Z,29.87
2019-01-11T23:00:21.956Z,30.73
2019-01-11T23:02:51.583Z,37.53
2019-01-11T23:05:20.029Z,24.70
2019-01-11T23:07:48.496Z,41.90
2019-01-11T23:10:19.979Z,29.33
2019-01-11T23:12:51.387Z,109.07
2019-01-11T23:15:19.992Z,83.50
2019-01-11T23:17:51.510Z,39.23
2019-01-11T23:20:19.948Z,45.63
2019-01-11T23:22:48.429Z,34.60
2019-01-11T23:25:16.894Z,27.25
2019-01-11T23:27:45.363Z,31.17
2019-01-11T23:30:16.462Z,36.48
2019-01-11T23:32:45.160Z,45.67
2019-01-11T23:35:13.789Z,42.67
2019-01-11T23:37:42.252Z,48.43
2019-01-11T23:40:12.490Z,43.50
2019-01-11T23:42:40.949Z,47.70
2019-01-11T23:45:11.536Z,45.43
2019-01-11T23:47:39.980Z,38.93
2019-01-11T23:50:11.780Z,42.10
2019-01-11T23:52:40.223Z,40.70
2019-01-11T23:55:10.113Z,29.63
2019-01-11T23:57:38.574Z,43.13
